Portada
METAR-TAF:

METAR-TAF

Aeropuertos :

Tanagra, Grecia

latitud: 38-19N, longitud: 023-32E, altitud: 148 m

METAR: falta

Hora: 04:46 (01:46 UTC)

Pronóstico

El informe se hizo hace 2 horas y 46 minutos, a las 23:00 UTC
Pronóstico válido del 23 a las 00 UTC al 23 a las 09 UTC
Viento 5 kt del noroeste
Visibilidad 10 km o más
Escasas nubes a una altura de 2500 ft

TAF: LGTG 222300Z 2300/2309 31005KT 9999 FEW025

Observaciones y pronósticos meteorológicos de más de 4000 aeropuertos (mensajes METAR y TAF).

Los puntos amarillos y rojos representan las estaciones disponibles.

Ponga el ratón en el punto deseado para ver el nombre de la estación.

Haga clic para ver las observaciones y los pronósticos meteorológicos.

Para cambiar el mapa : haga clic en los botones verdes con una cruz de color negro para hacer un zoom, en el botón verde con un guión para alejar o en las flechas verdes para mapas adyacentes.


METAR-TAF: